sensor_id;sensor_type;location;lat;lon;timestamp;P1;durP1;ratioP1;P2;durP2;ratioP2
18249;SDS011;27980;52.126;5.572;2023-11-21T00:00:51;24.77;;;10.32;;
18249;SDS011;27980;52.126;5.572;2023-11-21T00:03:19;23.73;;;10.80;;
18249;SDS011;27980;52.126;5.572;2023-11-21T00:05:48;24.48;;;11.13;;
18249;SDS011;27980;52.126;5.572;2023-11-21T00:08:14;28.05;;;10.18;;
18249;SDS011;27980;52.126;5.572;2023-11-21T00:10:41;23.77;;;10.85;;
18249;SDS011;27980;52.126;5.572;2023-11-21T00:13:08;27.10;;;11.20;;
18249;SDS011;27980;52.126;5.572;2023-11-21T00:15:37;26.73;;;10.80;;
18249;SDS011;27980;52.126;5.572;2023-11-21T00:18:03;21.73;;;9.35;;
18249;SDS011;27980;52.126;5.572;2023-11-21T00:20:31;19.67;;;10.10;;
18249;SDS011;27980;52.126;5.572;2023-11-21T00:22:58;18.02;;;9.32;;
18249;SDS011;27980;52.126;5.572;2023-11-21T00:25:27;25.63;;;11.05;;
18249;SDS011;27980;52.126;5.572;2023-11-21T00:27:53;30.55;;;10.38;;
18249;SDS011;27980;52.126;5.572;2023-11-21T00:30:20;22.92;;;10.75;;
18249;SDS011;27980;52.126;5.572;2023-11-21T00:32:47;20.40;;;10.63;;
18249;SDS011;27980;52.126;5.572;2023-11-21T00:35:13;17.65;;;9.27;;
18249;SDS011;27980;52.126;5.572;2023-11-21T00:37:42;16.55;;;9.35;;
18249;SDS011;27980;52.126;5.572;2023-11-21T00:40:09;25.70;;;10.18;;
18249;SDS011;27980;52.126;5.572;2023-11-21T00:42:35;17.77;;;9.77;;
18249;SDS011;27980;52.126;5.572;2023-11-21T00:45:02;21.02;;;9.50;;
18249;SDS011;27980;52.126;5.572;2023-11-21T00:47:29;18.50;;;9.13;;
18249;SDS011;27980;52.126;5.572;2023-11-21T00:49:56;17.80;;;9.65;;
18249;SDS011;27980;52.126;5.572;2023-11-21T00:52:23;25.25;;;10.35;;
18249;SDS011;27980;52.126;5.572;2023-11-21T00:54:51;20.67;;;9.65;;
18249;SDS011;27980;52.126;5.572;2023-11-21T00:57:17;19.60;;;10.25;;
18249;SDS011;27980;52.126;5.572;2023-11-21T00:59:43;23.52;;;10.85;;
18249;SDS011;27980;52.126;5.572;2023-11-21T01:02:10;25.63;;;11.20;;
18249;SDS011;27980;52.126;5.572;2023-11-21T01:04:36;25.35;;;10.90;;
18249;SDS011;27980;52.126;5.572;2023-11-21T01:07:03;22.30;;;10.65;;
18249;SDS011;27980;52.126;5.572;2023-11-21T01:09:30;27.60;;;10.80;;
18249;SDS011;27980;52.126;5.572;2023-11-21T01:11:58;20.55;;;10.13;;
18249;SDS011;27980;52.126;5.572;2023-11-21T01:14:25;20.80;;;9.55;;
18249;SDS011;27980;52.126;5.572;2023-11-21T01:16:52;18.73;;;9.63;;
18249;SDS011;27980;52.126;5.572;2023-11-21T01:19:18;19.50;;;9.93;;
18249;SDS011;27980;52.126;5.572;2023-11-21T01:21:44;21.30;;;10.50;;
18249;SDS011;27980;52.126;5.572;2023-11-21T01:24:11;21.00;;;10.18;;
18249;SDS011;27980;52.126;5.572;2023-11-21T01:26:37;21.58;;;10.27;;
18249;SDS011;27980;52.126;5.572;2023-11-21T01:29:05;18.98;;;9.60;;
18249;SDS011;27980;52.126;5.572;2023-11-21T01:31:32;20.17;;;9.35;;
18249;SDS011;27980;52.126;5.572;2023-11-21T01:33:58;17.52;;;10.00;;
18249;SDS011;27980;52.126;5.572;2023-11-21T01:36:29;15.20;;;8.98;;
18249;SDS011;27980;52.126;5.572;2023-11-21T01:38:56;16.27;;;9.95;;
18249;SDS011;27980;52.126;5.572;2023-11-21T01:41:24;18.40;;;9.15;;
18249;SDS011;27980;52.126;5.572;2023-11-21T01:43:52;16.45;;;9.35;;
18249;SDS011;27980;52.126;5.572;2023-11-21T01:46:20;21.15;;;9.85;;
18249;SDS011;27980;52.126;5.572;2023-11-21T01:48:46;16.15;;;9.48;;
18249;SDS011;27980;52.126;5.572;2023-11-21T01:51:14;16.95;;;9.43;;
18249;SDS011;27980;52.126;5.572;2023-11-21T01:53:40;23.58;;;9.93;;
18249;SDS011;27980;52.126;5.572;2023-11-21T01:56:07;25.55;;;10.40;;
18249;SDS011;27980;52.126;5.572;2023-11-21T01:58:34;22.65;;;10.05;;
18249;SDS011;27980;52.126;5.572;2023-11-21T02:01:01;23.45;;;10.38;;
18249;SDS011;27980;52.126;5.572;2023-11-21T02:03:29;20.98;;;9.95;;
18249;SDS011;27980;52.126;5.572;2023-11-21T02:05:56;21.48;;;10.00;;
18249;SDS011;27980;52.126;5.572;2023-11-21T02:08:22;16.75;;;10.30;;
18249;SDS011;27980;52.126;5.572;2023-11-21T02:10:49;21.77;;;11.20;;
18249;SDS011;27980;52.126;5.572;2023-11-21T02:13:15;22.85;;;10.55;;
18249;SDS011;27980;52.126;5.572;2023-11-21T02:15:42;27.08;;;11.43;;
18249;SDS011;27980;52.126;5.572;2023-11-21T02:18:09;24.10;;;10.57;;
18249;SDS011;27980;52.126;5.572;2023-11-21T02:20:37;23.00;;;11.13;;
18249;SDS011;27980;52.126;5.572;2023-11-21T02:23:08;19.83;;;10.40;;
18249;SDS011;27980;52.126;5.572;2023-11-21T02:25:34;22.73;;;10.82;;
18249;SDS011;27980;52.126;5.572;2023-11-21T02:28:02;27.13;;;11.00;;
18249;SDS011;27980;52.126;5.572;2023-11-21T02:30:29;20.30;;;11.15;;
18249;SDS011;27980;52.126;5.572;2023-11-21T02:32:57;24.92;;;10.85;;
18249;SDS011;27980;52.126;5.572;2023-11-21T02:35:24;24.30;;;10.50;;
18249;SDS011;27980;52.126;5.572;2023-11-21T02:37:51;22.95;;;11.88;;
18249;SDS011;27980;52.126;5.572;2023-11-21T02:40:18;23.88;;;11.32;;
18249;SDS011;27980;52.126;5.572;2023-11-21T02:42:46;28.60;;;11.73;;
18249;SDS011;27980;52.126;5.572;2023-11-21T02:45:13;28.80;;;12.35;;
18249;SDS011;27980;52.126;5.572;2023-11-21T02:47:41;22.73;;;11.60;;
18249;SDS011;27980;52.126;5.572;2023-11-21T02:50:08;19.60;;;10.43;;
18249;SDS011;27980;52.126;5.572;2023-11-21T02:52:35;22.25;;;10.68;;
18249;SDS011;27980;52.126;5.572;2023-11-21T02:55:01;22.95;;;10.77;;
18249;SDS011;27980;52.126;5.572;2023-11-21T02:57:29;21.20;;;10.65;;
18249;SDS011;27980;52.126;5.572;2023-11-21T02:59:55;20.10;;;10.43;;
18249;SDS011;27980;52.126;5.572;2023-11-21T03:02:22;22.45;;;10.75;;
18249;SDS011;27980;52.126;5.572;2023-11-21T03:04:49;22.58;;;10.50;;
18249;SDS011;27980;52.126;5.572;2023-11-21T03:07:16;22.25;;;10.43;;
18249;SDS011;27980;52.126;5.572;2023-11-21T03:09:44;17.50;;;9.77;;
18249;SDS011;27980;52.126;5.572;2023-11-21T03:12:11;27.88;;;11.68;;
18249;SDS011;27980;52.126;5.572;2023-11-21T03:14:39;19.48;;;10.35;;
18249;SDS011;27980;52.126;5.572;2023-11-21T03:17:06;20.92;;;10.48;;
18249;SDS011;27980;52.126;5.572;2023-11-21T03:19:32;20.48;;;10.77;;
18249;SDS011;27980;52.126;5.572;2023-11-21T03:21:59;19.10;;;10.15;;
18249;SDS011;27980;52.126;5.572;2023-11-21T03:24:25;19.02;;;9.52;;
18249;SDS011;27980;52.126;5.572;2023-11-21T03:26:52;23.90;;;10.05;;
18249;SDS011;27980;52.126;5.572;2023-11-21T03:29:18;21.83;;;10.90;;
18249;SDS011;27980;52.126;5.572;2023-11-21T03:31:46;17.85;;;9.82;;
18249;SDS011;27980;52.126;5.572;2023-11-21T03:34:15;15.90;;;10.23;;
18249;SDS011;27980;52.126;5.572;2023-11-21T03:36:41;20.50;;;10.18;;
18249;SDS011;27980;52.126;5.572;2023-11-21T03:39:08;18.17;;;9.13;;
18249;SDS011;27980;52.126;5.572;2023-11-21T03:41:34;19.20;;;9.57;;
18249;SDS011;27980;52.126;5.572;2023-11-21T03:44:01;16.45;;;8.88;;
18249;SDS011;27980;52.126;5.572;2023-11-21T03:46:27;16.73;;;9.60;;
18249;SDS011;27980;52.126;5.572;2023-11-21T03:48:55;17.63;;;9.35;;
18249;SDS011;27980;52.126;5.572;2023-11-21T03:51:21;19.17;;;9.35;;
18249;SDS011;27980;52.126;5.572;2023-11-21T03:53:48;23.05;;;9.50;;
18249;SDS011;27980;52.126;5.572;2023-11-21T03:56:14;15.25;;;8.60;;
18249;SDS011;27980;52.126;5.572;2023-11-21T03:58:41;23.80;;;9.27;;
18249;SDS011;27980;52.126;5.572;2023-11-21T04:01:08;25.13;;;9.43;;
18249;SDS011;27980;52.126;5.572;2023-11-21T04:03:35;16.98;;;9.10;;
18249;SDS011;27980;52.126;5.572;2023-11-21T04:06:05;16.83;;;8.80;;
18249;SDS011;27980;52.126;5.572;2023-11-21T04:08:31;17.90;;;9.50;;
18249;SDS011;27980;52.126;5.572;2023-11-21T04:10:59;22.70;;;10.93;;
18249;SDS011;27980;52.126;5.572;2023-11-21T04:13:26;18.05;;;9.30;;
18249;SDS011;27980;52.126;5.572;2023-11-21T04:15:52;16.27;;;9.38;;
18249;SDS011;27980;52.126;5.572;2023-11-21T04:18:20;16.33;;;8.90;;
18249;SDS011;27980;52.126;5.572;2023-11-21T04:20:46;22.23;;;9.80;;
18249;SDS011;27980;52.126;5.572;2023-11-21T04:23:15;19.95;;;9.40;;
18249;SDS011;27980;52.126;5.572;2023-11-21T04:25:42;13.98;;;8.25;;
18249;SDS011;27980;52.126;5.572;2023-11-21T04:28:09;16.70;;;8.75;;
18249;SDS011;27980;52.126;5.572;2023-11-21T04:30:35;17.85;;;9.70;;
18249;SDS011;27980;52.126;5.572;2023-11-21T04:33:01;20.70;;;10.30;;
18249;SDS011;27980;52.126;5.572;2023-11-21T04:35:28;14.52;;;8.88;;
18249;SDS011;27980;52.126;5.572;2023-11-21T04:37:54;19.30;;;10.07;;
18249;SDS011;27980;52.126;5.572;2023-11-21T04:40:23;17.92;;;8.77;;
18249;SDS011;27980;52.126;5.572;2023-11-21T04:42:52;20.48;;;10.15;;
18249;SDS011;27980;52.126;5.572;2023-11-21T04:45:18;18.42;;;9.93;;
18249;SDS011;27980;52.126;5.572;2023-11-21T04:47:44;18.23;;;9.77;;
18249;SDS011;27980;52.126;5.572;2023-11-21T04:50:11;19.63;;;10.65;;
18249;SDS011;27980;52.126;5.572;2023-11-21T04:52:37;18.70;;;10.57;;
18249;SDS011;27980;52.126;5.572;2023-11-21T04:55:04;23.52;;;10.23;;
18249;SDS011;27980;52.126;5.572;2023-11-21T04:57:33;18.20;;;9.70;;
18249;SDS011;27980;52.126;5.572;2023-11-21T04:59:59;25.25;;;10.52;;
18249;SDS011;27980;52.126;5.572;2023-11-21T05:02:26;25.73;;;10.35;;
18249;SDS011;27980;52.126;5.572;2023-11-21T05:04:52;18.52;;;9.93;;
18249;SDS011;27980;52.126;5.572;2023-11-21T05:07:20;19.27;;;9.88;;
18249;SDS011;27980;52.126;5.572;2023-11-21T05:09:47;26.45;;;9.48;;
18249;SDS011;27980;52.126;5.572;2023-11-21T05:12:16;25.13;;;10.00;;
18249;SDS011;27980;52.126;5.572;2023-11-21T05:14:44;23.73;;;10.05;;
18249;SDS011;27980;52.126;5.572;2023-11-21T05:17:11;20.67;;;10.48;;
18249;SDS011;27980;52.126;5.572;2023-11-21T05:19:38;24.23;;;11.43;;
18249;SDS011;27980;52.126;5.572;2023-11-21T05:22:05;24.67;;;9.85;;
18249;SDS011;27980;52.126;5.572;2023-11-21T05:24:33;24.55;;;10.20;;
18249;SDS011;27980;52.126;5.572;2023-11-21T05:27:01;30.40;;;12.00;;
18249;SDS011;27980;52.126;5.572;2023-11-21T05:29:27;24.73;;;10.52;;
18249;SDS011;27980;52.126;5.572;2023-11-21T05:31:55;28.35;;;10.68;;
18249;SDS011;27980;52.126;5.572;2023-11-21T05:34:21;21.40;;;10.35;;
18249;SDS011;27980;52.126;5.572;2023-11-21T05:36:49;25.35;;;11.57;;
18249;SDS011;27980;52.126;5.572;2023-11-21T05:39:15;22.63;;;10.52;;
18249;SDS011;27980;52.126;5.572;2023-11-21T05:41:42;28.83;;;11.15;;
18249;SDS011;27980;52.126;5.572;2023-11-21T05:44:09;24.92;;;12.38;;
18249;SDS011;27980;52.126;5.572;2023-11-21T05:46:35;29.83;;;11.57;;
18249;SDS011;27980;52.126;5.572;2023-11-21T05:49:03;28.63;;;11.05;;
18249;SDS011;27980;52.126;5.572;2023-11-21T05:51:29;30.27;;;11.85;;
18249;SDS011;27980;52.126;5.572;2023-11-21T05:53:56;26.30;;;11.55;;
18249;SDS011;27980;52.126;5.572;2023-11-21T05:56:22;27.95;;;12.23;;
18249;SDS011;27980;52.126;5.572;2023-11-21T05:58:48;37.15;;;12.68;;
18249;SDS011;27980;52.126;5.572;2023-11-21T06:01:16;24.70;;;10.63;;
18249;SDS011;27980;52.126;5.572;2023-11-21T06:03:42;23.88;;;10.73;;
18249;SDS011;27980;52.126;5.572;2023-11-21T06:06:10;23.90;;;11.50;;
18249;SDS011;27980;52.126;5.572;2023-11-21T06:08:36;26.00;;;12.00;;
18249;SDS011;27980;52.126;5.572;2023-11-21T06:11:03;29.77;;;12.55;;
18249;SDS011;27980;52.126;5.572;2023-11-21T06:13:29;29.75;;;12.38;;
18249;SDS011;27980;52.126;5.572;2023-11-21T06:15:56;29.38;;;11.93;;
18249;SDS011;27980;52.126;5.572;2023-11-21T06:18:22;26.15;;;12.00;;
18249;SDS011;27980;52.126;5.572;2023-11-21T06:20:49;34.72;;;12.77;;
18249;SDS011;27980;52.126;5.572;2023-11-21T06:23:16;30.77;;;12.77;;
18249;SDS011;27980;52.126;5.572;2023-11-21T06:25:43;29.77;;;11.95;;
18249;SDS011;27980;52.126;5.572;2023-11-21T06:28:09;28.20;;;11.70;;
18249;SDS011;27980;52.126;5.572;2023-11-21T06:30:36;27.23;;;11.85;;
18249;SDS011;27980;52.126;5.572;2023-11-21T06:33:03;27.92;;;11.90;;
18249;SDS011;27980;52.126;5.572;2023-11-21T06:35:29;25.50;;;11.98;;
18249;SDS011;27980;52.126;5.572;2023-11-21T06:37:58;31.95;;;11.98;;
18249;SDS011;27980;52.126;5.572;2023-11-21T06:40:26;28.13;;;11.23;;
18249;SDS011;27980;52.126;5.572;2023-11-21T06:42:53;20.45;;;11.55;;
18249;SDS011;27980;52.126;5.572;2023-11-21T06:45:20;25.77;;;11.70;;
18249;SDS011;27980;52.126;5.572;2023-11-21T06:47:46;34.40;;;12.07;;
18249;SDS011;27980;52.126;5.572;2023-11-21T06:50:13;21.60;;;11.38;;
18249;SDS011;27980;52.126;5.572;2023-11-21T06:52:39;29.77;;;11.82;;
18249;SDS011;27980;52.126;5.572;2023-11-21T06:55:06;23.27;;;11.45;;
18249;SDS011;27980;52.126;5.572;2023-11-21T06:57:34;25.05;;;11.38;;
18249;SDS011;27980;52.126;5.572;2023-11-21T07:00:01;23.23;;;12.00;;
18249;SDS011;27980;52.126;5.572;2023-11-21T07:02:28;23.10;;;12.52;;
18249;SDS011;27980;52.126;5.572;2023-11-21T07:04:54;27.95;;;12.15;;
18249;SDS011;27980;52.126;5.572;2023-11-21T07:07:21;25.35;;;11.52;;
18249;SDS011;27980;52.126;5.572;2023-11-21T07:09:47;25.40;;;11.73;;
18249;SDS011;27980;52.126;5.572;2023-11-21T07:12:14;26.17;;;12.50;;
18249;SDS011;27980;52.126;5.572;2023-11-21T07:14:41;35.22;;;12.10;;
18249;SDS011;27980;52.126;5.572;2023-11-21T07:17:09;23.05;;;11.38;;
18249;SDS011;27980;52.126;5.572;2023-11-21T07:19:37;25.30;;;11.88;;
18249;SDS011;27980;52.126;5.572;2023-11-21T07:22:03;33.00;;;11.75;;
18249;SDS011;27980;52.126;5.572;2023-11-21T07:24:30;29.33;;;11.52;;
18249;SDS011;27980;52.126;5.572;2023-11-21T07:26:57;22.63;;;10.43;;
18249;SDS011;27980;52.126;5.572;2023-11-21T07:29:23;26.45;;;12.93;;
18249;SDS011;27980;52.126;5.572;2023-11-21T07:31:52;25.10;;;11.02;;
18249;SDS011;27980;52.126;5.572;2023-11-21T07:34:18;21.65;;;10.70;;
18249;SDS011;27980;52.126;5.572;2023-11-21T07:36:45;22.85;;;11.50;;
18249;SDS011;27980;52.126;5.572;2023-11-21T07:39:11;17.52;;;9.82;;
18249;SDS011;27980;52.126;5.572;2023-11-21T07:41:40;27.13;;;10.80;;
18249;SDS011;27980;52.126;5.572;2023-11-21T07:44:10;19.17;;;10.73;;
18249;SDS011;27980;52.126;5.572;2023-11-21T07:46:36;20.65;;;10.35;;
18249;SDS011;27980;52.126;5.572;2023-11-21T07:49:04;22.10;;;9.30;;
18249;SDS011;27980;52.126;5.572;2023-11-21T07:51:30;22.48;;;9.93;;
18249;SDS011;27980;52.126;5.572;2023-11-21T07:53:57;22.70;;;9.32;;
18249;SDS011;27980;52.126;5.572;2023-11-21T07:56:23;16.15;;;8.88;;
18249;SDS011;27980;52.126;5.572;2023-11-21T07:58:49;21.20;;;8.77;;
18249;SDS011;27980;52.126;5.572;2023-11-21T08:01:16;22.13;;;10.10;;
18249;SDS011;27980;52.126;5.572;2023-11-21T08:03:43;20.92;;;9.75;;
18249;SDS011;27980;52.126;5.572;2023-11-21T08:06:11;18.75;;;9.65;;
18249;SDS011;27980;52.126;5.572;2023-11-21T08:08:37;21.05;;;9.45;;
18249;SDS011;27980;52.126;5.572;2023-11-21T08:11:04;16.65;;;8.77;;
18249;SDS011;27980;52.126;5.572;2023-11-21T08:13:33;20.38;;;8.57;;
18249;SDS011;27980;52.126;5.572;2023-11-21T08:15:59;19.80;;;8.88;;
18249;SDS011;27980;52.126;5.572;2023-11-21T08:18:29;26.90;;;9.88;;
18249;SDS011;27980;52.126;5.572;2023-11-21T08:20:56;16.10;;;8.50;;
18249;SDS011;27980;52.126;5.572;2023-11-21T08:23:24;18.98;;;9.40;;
18249;SDS011;27980;52.126;5.572;2023-11-21T08:25:51;20.75;;;9.52;;
18249;SDS011;27980;52.126;5.572;2023-11-21T08:28:17;19.30;;;9.18;;
18249;SDS011;27980;52.126;5.572;2023-11-21T08:30:44;18.63;;;8.48;;
18249;SDS011;27980;52.126;5.572;2023-11-21T08:33:11;22.85;;;9.55;;
18249;SDS011;27980;52.126;5.572;2023-11-21T08:35:38;17.83;;;8.90;;
18249;SDS011;27980;52.126;5.572;2023-11-21T08:38:04;20.65;;;8.20;;
18249;SDS011;27980;52.126;5.572;2023-11-21T08:40:33;17.90;;;8.52;;
18249;SDS011;27980;52.126;5.572;2023-11-21T08:43:01;18.83;;;9.15;;
18249;SDS011;27980;52.126;5.572;2023-11-21T08:45:29;26.23;;;10.25;;
18249;SDS011;27980;52.126;5.572;2023-11-21T08:47:56;23.35;;;9.93;;
18249;SDS011;27980;52.126;5.572;2023-11-21T08:50:22;21.00;;;9.95;;
18249;SDS011;27980;52.126;5.572;2023-11-21T08:52:48;24.02;;;9.82;;
18249;SDS011;27980;52.126;5.572;2023-11-21T08:55:17;21.13;;;10.18;;
18249;SDS011;27980;52.126;5.572;2023-11-21T08:57:46;26.08;;;10.27;;
18249;SDS011;27980;52.126;5.572;2023-11-21T09:00:13;21.67;;;10.38;;
18249;SDS011;27980;52.126;5.572;2023-11-21T09:02:42;22.98;;;10.48;;
18249;SDS011;27980;52.126;5.572;2023-11-21T09:05:08;23.05;;;10.52;;
18249;SDS011;27980;52.126;5.572;2023-11-21T09:07:35;27.88;;;10.70;;
18249;SDS011;27980;52.126;5.572;2023-11-21T09:10:02;24.23;;;11.48;;
18249;SDS011;27980;52.126;5.572;2023-11-21T09:12:28;24.70;;;10.52;;
18249;SDS011;27980;52.126;5.572;2023-11-21T09:14:58;27.83;;;11.75;;
18249;SDS011;27980;52.126;5.572;2023-11-21T09:17:25;23.83;;;10.57;;
18249;SDS011;27980;52.126;5.572;2023-11-21T09:19:51;29.85;;;11.07;;
18249;SDS011;27980;52.126;5.572;2023-11-21T09:22:18;28.00;;;11.35;;
18249;SDS011;27980;52.126;5.572;2023-11-21T09:24:44;27.40;;;11.40;;
18249;SDS011;27980;52.126;5.572;2023-11-21T09:27:12;27.02;;;11.48;;
18249;SDS011;27980;52.126;5.572;2023-11-21T09:29:38;27.05;;;11.40;;
18249;SDS011;27980;52.126;5.572;2023-11-21T09:32:06;31.30;;;12.55;;
18249;SDS011;27980;52.126;5.572;2023-11-21T09:34:33;22.25;;;10.98;;
18249;SDS011;27980;52.126;5.572;2023-11-21T09:37:01;28.05;;;11.20;;
18249;SDS011;27980;52.126;5.572;2023-11-21T09:39:30;23.58;;;10.60;;
18249;SDS011;27980;52.126;5.572;2023-11-21T09:41:57;27.48;;;10.75;;
18249;SDS011;27980;52.126;5.572;2023-11-21T09:44:28;25.08;;;10.55;;
18249;SDS011;27980;52.126;5.572;2023-11-21T09:46:58;24.75;;;10.65;;
18249;SDS011;27980;52.126;5.572;2023-11-21T09:49:27;19.60;;;9.27;;
18249;SDS011;27980;52.126;5.572;2023-11-21T09:51:54;20.88;;;9.65;;
18249;SDS011;27980;52.126;5.572;2023-11-21T09:54:21;25.10;;;10.30;;
18249;SDS011;27980;52.126;5.572;2023-11-21T09:56:47;20.35;;;9.48;;
18249;SDS011;27980;52.126;5.572;2023-11-21T09:59:15;21.52;;;9.75;;
18249;SDS011;27980;52.126;5.572;2023-11-21T10:01:42;16.38;;;8.75;;
18249;SDS011;27980;52.126;5.572;2023-11-21T10:04:09;16.58;;;8.35;;
18249;SDS011;27980;52.126;5.572;2023-11-21T10:06:39;20.67;;;9.02;;
18249;SDS011;27980;52.126;5.572;2023-11-21T10:09:06;19.27;;;9.13;;
18249;SDS011;27980;52.126;5.572;2023-11-21T10:11:36;20.65;;;9.07;;
18249;SDS011;27980;52.126;5.572;2023-11-21T10:14:04;21.50;;;9.63;;
18249;SDS011;27980;52.126;5.572;2023-11-21T10:16:32;23.67;;;9.70;;
18249;SDS011;27980;52.126;5.572;2023-11-21T10:18:59;20.80;;;9.05;;
18249;SDS011;27980;52.126;5.572;2023-11-21T10:21:26;18.55;;;8.60;;
18249;SDS011;27980;52.126;5.572;2023-11-21T10:23:54;21.80;;;9.00;;
18249;SDS011;27980;52.126;5.572;2023-11-21T10:26:22;23.77;;;9.50;;
18249;SDS011;27980;52.126;5.572;2023-11-21T10:28:55;22.70;;;9.13;;
18249;SDS011;27980;52.126;5.572;2023-11-21T10:31:22;23.42;;;9.15;;
18249;SDS011;27980;52.126;5.572;2023-11-21T10:33:49;17.60;;;8.68;;
18249;SDS011;27980;52.126;5.572;2023-11-21T10:36:19;16.65;;;7.38;;
18249;SDS011;27980;52.126;5.572;2023-11-21T10:38:50;19.42;;;8.73;;
18249;SDS011;27980;52.126;5.572;2023-11-21T10:41:19;21.15;;;8.73;;
18249;SDS011;27980;52.126;5.572;2023-11-21T10:43:45;22.38;;;9.15;;
18249;SDS011;27980;52.126;5.572;2023-11-21T10:46:12;22.38;;;9.30;;
18249;SDS011;27980;52.126;5.572;2023-11-21T10:48:40;19.45;;;9.00;;
18249;SDS011;27980;52.126;5.572;2023-11-21T10:51:07;22.00;;;8.60;;
18249;SDS011;27980;52.126;5.572;2023-11-21T10:53:37;22.63;;;8.85;;
18249;SDS011;27980;52.126;5.572;2023-11-21T10:56:05;21.25;;;8.50;;
18249;SDS011;27980;52.126;5.572;2023-11-21T10:58:33;21.15;;;7.95;;
18249;SDS011;27980;52.126;5.572;2023-11-21T11:01:00;18.42;;;7.93;;
18249;SDS011;27980;52.126;5.572;2023-11-21T11:03:29;19.50;;;8.20;;
18249;SDS011;27980;52.126;5.572;2023-11-21T11:05:55;18.25;;;8.13;;
18249;SDS011;27980;52.126;5.572;2023-11-21T11:08:22;15.60;;;7.13;;
18249;SDS011;27980;52.126;5.572;2023-11-21T11:10:51;17.80;;;7.30;;
18249;SDS011;27980;52.126;5.572;2023-11-21T11:13:18;19.52;;;8.23;;
18249;SDS011;27980;52.126;5.572;2023-11-21T11:15:47;22.08;;;8.45;;
18249;SDS011;27980;52.126;5.572;2023-11-21T11:18:14;20.85;;;8.00;;
18249;SDS011;27980;52.126;5.572;2023-11-21T11:20:42;17.48;;;7.13;;
18249;SDS011;27980;52.126;5.572;2023-11-21T11:23:13;21.08;;;7.63;;
18249;SDS011;27980;52.126;5.572;2023-11-21T11:25:49;23.05;;;8.52;;
18249;SDS011;27980;52.126;5.572;2023-11-21T11:28:19;18.40;;;7.55;;
18249;SDS011;27980;52.126;5.572;2023-11-21T11:30:52;22.15;;;8.73;;
18249;SDS011;27980;52.126;5.572;2023-11-21T11:33:22;17.52;;;7.43;;
18249;SDS011;27980;52.126;5.572;2023-11-21T11:35:53;18.08;;;7.28;;
18249;SDS011;27980;52.126;5.572;2023-11-21T11:38:22;17.52;;;6.93;;
18249;SDS011;27980;52.126;5.572;2023-11-21T11:40:52;15.73;;;6.85;;
18249;SDS011;27980;52.126;5.572;2023-11-21T11:43:24;18.30;;;8.18;;
18249;SDS011;27980;52.126;5.572;2023-11-21T11:45:53;20.40;;;8.55;;
18249;SDS011;27980;52.126;5.572;2023-11-21T11:48:21;22.00;;;9.32;;
18249;SDS011;27980;52.126;5.572;2023-11-21T11:51:00;23.90;;;9.65;;
18249;SDS011;27980;52.126;5.572;2023-11-21T11:53:28;16.15;;;8.30;;
18249;SDS011;27980;52.126;5.572;2023-11-21T11:56:00;18.75;;;7.90;;
18249;SDS011;27980;52.126;5.572;2023-11-21T11:58:45;20.58;;;8.07;;
18249;SDS011;27980;52.126;5.572;2023-11-21T12:01:15;21.33;;;8.88;;
18249;SDS011;27980;52.126;5.572;2023-11-21T12:03:42;19.77;;;8.38;;
18249;SDS011;27980;52.126;5.572;2023-11-21T12:06:09;19.48;;;8.40;;
18249;SDS011;27980;52.126;5.572;2023-11-21T12:08:36;19.50;;;8.90;;
18249;SDS011;27980;52.126;5.572;2023-11-21T12:11:03;24.92;;;9.25;;
18249;SDS011;27980;52.126;5.572;2023-11-21T12:13:30;19.67;;;9.32;;
18249;SDS011;27980;52.126;5.572;2023-11-21T12:15:57;20.77;;;9.05;;
18249;SDS011;27980;52.126;5.572;2023-11-21T12:18:26;23.42;;;9.95;;
18249;SDS011;27980;52.126;5.572;2023-11-21T12:20:53;22.42;;;9.32;;
18249;SDS011;27980;52.126;5.572;2023-11-21T12:23:19;19.08;;;8.90;;
18249;SDS011;27980;52.126;5.572;2023-11-21T12:25:46;19.77;;;9.25;;
18249;SDS011;27980;52.126;5.572;2023-11-21T12:28:12;20.08;;;9.57;;
18249;SDS011;27980;52.126;5.572;2023-11-21T12:30:39;20.67;;;9.13;;
18249;SDS011;27980;52.126;5.572;2023-11-21T12:33:06;19.10;;;8.90;;
18249;SDS011;27980;52.126;5.572;2023-11-21T12:35:35;17.95;;;8.65;;
18249;SDS011;27980;52.126;5.572;2023-11-21T12:38:01;23.75;;;9.80;;
18249;SDS011;27980;52.126;5.572;2023-11-21T12:40:28;19.13;;;9.18;;
18249;SDS011;27980;52.126;5.572;2023-11-21T12:42:56;20.83;;;8.73;;
18249;SDS011;27980;52.126;5.572;2023-11-21T12:45:24;16.55;;;8.98;;
18249;SDS011;27980;52.126;5.572;2023-11-21T12:47:54;18.13;;;9.20;;
18249;SDS011;27980;52.126;5.572;2023-11-21T12:50:22;20.05;;;8.98;;
18249;SDS011;27980;52.126;5.572;2023-11-21T12:52:51;21.15;;;9.23;;
18249;SDS011;27980;52.126;5.572;2023-11-21T12:55:19;18.13;;;8.50;;
18249;SDS011;27980;52.126;5.572;2023-11-21T12:57:47;20.75;;;9.10;;
18249;SDS011;27980;52.126;5.572;2023-11-21T13:00:15;17.27;;;8.40;;
18249;SDS011;27980;52.126;5.572;2023-11-21T13:02:52;16.50;;;8.23;;
18249;SDS011;27980;52.126;5.572;2023-11-21T13:05:28;17.65;;;8.48;;
18249;SDS011;27980;52.126;5.572;2023-11-21T13:07:56;18.67;;;8.77;;
18249;SDS011;27980;52.126;5.572;2023-11-21T13:10:23;17.75;;;7.57;;
18249;SDS011;27980;52.126;5.572;2023-11-21T13:12:52;17.45;;;7.97;;
18249;SDS011;27980;52.126;5.572;2023-11-21T13:15:20;17.73;;;8.30;;
18249;SDS011;27980;52.126;5.572;2023-11-21T13:17:46;16.63;;;8.13;;
18249;SDS011;27980;52.126;5.572;2023-11-21T13:20:13;16.80;;;8.43;;
18249;SDS011;27980;52.126;5.572;2023-11-21T13:22:44;17.90;;;8.43;;
18249;SDS011;27980;52.126;5.572;2023-11-21T13:25:12;16.73;;;7.60;;
18249;SDS011;27980;52.126;5.572;2023-11-21T13:27:39;13.43;;;6.63;;
18249;SDS011;27980;52.126;5.572;2023-11-21T13:30:08;13.93;;;5.05;;
18249;SDS011;27980;52.126;5.572;2023-11-21T13:32:35;10.13;;;4.38;;
18249;SDS011;27980;52.126;5.572;2023-11-21T13:35:01;9.23;;;4.15;;
18249;SDS011;27980;52.126;5.572;2023-11-21T13:37:28;6.15;;;3.53;;
18249;SDS011;27980;52.126;5.572;2023-11-21T13:39:57;7.72;;;3.75;;
18249;SDS011;27980;52.126;5.572;2023-11-21T13:42:24;9.38;;;3.67;;
18249;SDS011;27980;52.126;5.572;2023-11-21T13:44:56;6.53;;;3.42;;
18249;SDS011;27980;52.126;5.572;2023-11-21T13:47:22;7.78;;;3.80;;
18249;SDS011;27980;52.126;5.572;2023-11-21T13:49:50;7.22;;;3.85;;
18249;SDS011;27980;52.126;5.572;2023-11-21T13:52:17;8.80;;;5.35;;
18249;SDS011;27980;52.126;5.572;2023-11-21T13:54:47;7.07;;;3.33;;
18249;SDS011;27980;52.126;5.572;2023-11-21T13:57:14;9.85;;;4.40;;
18249;SDS011;27980;52.126;5.572;2023-11-21T13:59:42;9.52;;;4.78;;
18249;SDS011;27980;52.126;5.572;2023-11-21T14:02:09;8.45;;;4.18;;
18249;SDS011;27980;52.126;5.572;2023-11-21T14:04:42;11.38;;;5.63;;
18249;SDS011;27980;52.126;5.572;2023-11-21T14:07:21;11.55;;;5.32;;
18249;SDS011;27980;52.126;5.572;2023-11-21T14:09:55;14.50;;;6.82;;
18249;SDS011;27980;52.126;5.572;2023-11-21T14:12:23;12.10;;;6.03;;
18249;SDS011;27980;52.126;5.572;2023-11-21T14:14:51;13.70;;;6.70;;
18249;SDS011;27980;52.126;5.572;2023-11-21T14:17:17;15.68;;;7.03;;
18249;SDS011;27980;52.126;5.572;2023-11-21T14:19:47;18.75;;;7.60;;
18249;SDS011;27980;52.126;5.572;2023-11-21T14:22:14;16.02;;;8.20;;
18249;SDS011;27980;52.126;5.572;2023-11-21T14:24:42;15.75;;;7.25;;
18249;SDS011;27980;52.126;5.572;2023-11-21T14:27:11;16.95;;;7.72;;
18249;SDS011;27980;52.126;5.572;2023-11-21T14:29:38;16.45;;;7.78;;